Time;durP1;ratioP1;P1;durP2;ratioP2;P2;SDS_P1;SDS_P2;PMS_P1;PMS_P2;Temp;Humidity;BMP_temperature;BMP_pressure;BME280_temperature;BME280_humidity;BME280_pressure;Samples;Min_cycle;Max_cycle;Signal;HPM_P1;HPM_P2
2022/10/31 00:02:04;;;;;;;48.38;34.80;;;15.20;99.90;;;;;;5029532;28;20236;-82
2022/10/31 00:04:30;;;;;;;42.42;30.63;;;15.20;99.90;;;;;;5039314;28;20752;-80
2022/10/31 00:06:57;;;;;;;51.45;35.47;;;15.20;99.90;;;;;;5043123;28;20224;-81
2022/10/31 00:09:24;;;;;;;43.17;33.72;;;15.10;99.90;;;;;;5043696;28;20265;-82
2022/10/31 00:11:51;;;;;;;54.53;34.35;;;15.10;99.90;;;;;;5044141;28;20205;-80
2022/10/31 00:14:18;;;;;;;58.83;35.78;;;15.00;99.90;;;;;;5035643;28;20251;-80
2022/10/31 00:16:46;;;;;;;49.90;35.65;;;15.00;99.90;;;;;;5043991;28;20202;-80
2022/10/31 00:19:13;;;;;;;56.17;37.28;;;15.00;99.90;;;;;;5046175;28;20676;-82
2022/10/31 00:21:40;;;;;;;47.13;33.90;;;14.90;99.90;;;;;;5041947;28;20287;-80
2022/10/31 00:24:07;;;;;;;55.00;39.22;;;14.90;99.90;;;;;;5032663;28;20219;-82
2022/10/31 00:26:34;;;;;;;44.88;34.58;;;14.90;99.90;;;;;;5031174;28;20676;-82
2022/10/31 00:29:01;;;;;;;49.08;36.50;;;14.90;99.90;;;;;;5040972;28;20252;-79
2022/10/31 00:31:29;;;;;;;61.78;38.38;;;14.90;99.90;;;;;;5055839;28;20268;-82
2022/10/31 00:33:57;;;;;;;64.85;39.38;;;14.80;99.90;;;;;;5057658;28;20253;-81
2022/10/31 00:36:24;;;;;;;54.05;37.05;;;14.90;99.90;;;;;;5047608;28;20183;-79
2022/10/31 00:38:51;;;;;;;52.20;38.88;;;14.80;99.90;;;;;;5051147;28;20516;-79
2022/10/31 00:41:19;;;;;;;58.60;39.60;;;14.80;99.90;;;;;;5042319;28;20189;-81
2022/10/31 00:43:47;;;;;;;62.85;42.35;;;14.70;99.90;;;;;;5046482;28;20301;-79
2022/10/31 00:46:15;;;;;;;67.78;38.85;;;14.70;99.90;;;;;;5048705;28;20212;-80
2022/10/31 00:48:41;;;;;;;62.00;41.50;;;14.70;99.90;;;;;;5055772;28;20221;-80
2022/10/31 00:51:10;;;;;;;65.35;42.55;;;14.60;99.90;;;;;;5049725;28;20206;-80
2022/10/31 00:53:37;;;;;;;57.33;41.58;;;14.60;99.90;;;;;;5057645;28;20278;-82
2022/10/31 00:56:04;;;;;;;61.00;42.00;;;14.60;99.90;;;;;;5053787;28;20217;-80
2022/10/31 00:58:31;;;;;;;59.10;41.28;;;14.50;99.90;;;;;;5053799;28;20248;-80
2022/10/31 01:00:58;;;;;;;69.30;45.53;;;14.50;99.90;;;;;;5054043;28;20212;-80
2022/10/31 01:03:27;;;;;;;66.47;43.63;;;14.50;99.90;;;;;;5054152;28;20244;-80
2022/10/31 01:05:58;;;;;;;54.88;39.58;;;14.40;99.90;;;;;;5054733;28;20216;-79
2022/10/31 01:08:27;;;;;;;62.00;42.38;;;14.40;99.90;;;;;;5052419;28;20212;-79
2022/10/31 01:11:01;;;;;;;67.40;43.90;;;14.40;99.90;;;;;;5051271;28;20219;-79
2022/10/31 01:13:28;;;;;;;66.40;43.78;;;14.40;99.90;;;;;;5053998;28;20268;-81
2022/10/31 01:15:56;;;;;;;62.08;42.20;;;14.50;99.90;;;;;;5051544;28;20211;-80
2022/10/31 01:18:23;;;;;;;66.60;43.45;;;14.40;99.90;;;;;;5045441;28;20211;-79
2022/10/31 01:20:58;;;;;;;74.38;48.95;;;14.40;99.90;;;;;;5053119;28;20196;-81
2022/10/31 01:23:27;;;;;;;72.38;46.60;;;14.30;99.90;;;;;;5050021;28;20212;-81
2022/10/31 01:26:02;;;;;;;71.68;44.38;;;14.30;99.90;;;;;;5054936;28;20188;-81
2022/10/31 01:28:29;;;;;;;77.53;47.13;;;14.30;99.90;;;;;;5048738;28;20224;-82
2022/10/31 01:30:56;;;;;;;76.75;47.88;;;14.30;99.90;;;;;;5042882;28;20272;-81
2022/10/31 01:33:23;;;;;;;70.50;47.55;;;14.20;99.90;;;;;;5050243;28;20304;-79
2022/10/31 01:35:50;;;;;;;59.40;44.47;;;14.20;99.90;;;;;;5048532;28;20269;-80
2022/10/31 01:38:16;;;;;;;70.28;44.67;;;14.20;99.90;;;;;;5049085;28;20228;-80
2022/10/31 01:40:45;;;;;;;72.30;49.90;;;14.20;99.90;;;;;;5045682;28;20356;-81
2022/10/31 01:43:14;;;;;;;71.97;48.55;;;14.10;99.90;;;;;;5045856;28;20243;-81
2022/10/31 01:45:42;;;;;;;79.60;47.58;;;14.10;99.90;;;;;;5044277;28;20201;-81
2022/10/31 01:48:14;;;;;;;85.65;51.13;;;14.10;99.90;;;;;;5041632;28;20235;-80
2022/10/31 01:50:43;;;;;;;81.75;49.28;;;14.00;99.90;;;;;;5039964;28;20223;-82
2022/10/31 01:53:12;;;;;;;62.88;45.45;;;14.00;99.90;;;;;;5033272;28;20240;-82
2022/10/31 01:55:41;;;;;;;73.90;47.03;;;14.00;99.90;;;;;;5032757;28;20197;-82
2022/10/31 01:58:13;;;;;;;75.97;47.47;;;13.90;99.90;;;;;;5026634;28;20200;-81
2022/10/31 02:00:42;;;;;;;76.68;47.58;;;13.90;99.90;;;;;;5038810;28;20204;-80
2022/10/31 02:03:09;;;;;;;78.85;47.85;;;13.90;99.90;;;;;;5036129;28;20271;-80
2022/10/31 02:05:36;;;;;;;80.22;48.95;;;13.90;99.90;;;;;;5042758;28;20200;-83
2022/10/31 02:08:07;;;;;;;67.55;45.97;;;14.00;99.90;;;;;;5030470;28;20284;-80
2022/10/31 02:10:37;;;;;;;80.85;48.33;;;13.90;99.90;;;;;;5039274;28;20634;-79
2022/10/31 02:13:07;;;;;;;78.75;47.22;;;13.90;99.90;;;;;;5030714;28;20266;-81
2022/10/31 02:15:37;;;;;;;79.85;48.13;;;13.90;99.90;;;;;;5037975;28;20210;-82
2022/10/31 02:18:04;;;;;;;83.60;48.97;;;13.90;99.90;;;;;;5033353;28;20283;-82
2022/10/31 02:20:37;;;;;;;79.07;48.67;;;13.90;99.90;;;;;;5028699;28;20240;-81
2022/10/31 02:23:28;;;;;;;83.55;49.78;;;13.90;99.90;;;;;;5033440;28;20242;-82
2022/10/31 02:26:22;;;;;;;83.03;50.83;;;13.90;99.90;;;;;;5034455;28;20200;-82
2022/10/31 02:29:22;;;;;;;78.45;49.30;;;13.80;99.90;;;;;;5031416;28;20213;-81
2022/10/31 02:32:01;;;;;;;78.65;51.63;;;13.80;99.90;;;;;;5040651;28;20208;-79
2022/10/31 02:34:37;;;;;;;84.85;48.35;;;13.80;99.90;;;;;;5038157;28;20292;-81
2022/10/31 02:37:14;;;;;;;98.63;57.95;;;13.70;99.90;;;;;;5033267;28;20199;-81
2022/10/31 02:39:47;;;;;;;86.03;50.97;;;13.80;99.90;;;;;;5027389;28;20207;-81
2022/10/31 02:42:18;;;;;;;87.85;50.90;;;13.70;99.90;;;;;;5031205;28;20224;-79
2022/10/31 02:44:52;;;;;;;95.88;53.47;;;13.70;99.90;;;;;;5024387;28;20201;-80
2022/10/31 02:47:27;;;;;;;71.93;50.22;;;13.70;99.90;;;;;;5036496;28;20210;-81
2022/10/31 02:49:58;;;;;;;83.55;52.28;;;13.70;99.90;;;;;;5039864;28;20204;-81
2022/10/31 02:52:28;;;;;;;78.75;51.67;;;13.70;99.90;;;;;;5041712;28;20220;-79
2022/10/31 02:54:56;;;;;;;88.70;52.17;;;13.70;99.90;;;;;;5034677;28;20255;-78
2022/10/31 02:57:26;;;;;;;77.88;49.45;;;13.70;99.90;;;;;;5042274;28;20226;-80
2022/10/31 02:59:56;;;;;;;77.50;48.33;;;13.70;99.90;;;;;;5048441;28;20201;-78
2022/10/31 03:02:47;;;;;;;73.47;49.47;;;13.60;99.90;;;;;;5048329;28;20311;-79
2022/10/31 03:05:34;;;;;;;83.30;52.70;;;13.70;99.90;;;;;;5041505;28;20204;-79
2022/10/31 03:08:07;;;;;;;88.53;54.58;;;13.60;99.90;;;;;;5032514;28;20521;-79
2022/10/31 03:10:41;;;;;;;65.90;45.15;;;13.60;99.90;;;;;;5023296;28;20199;-81
2022/10/31 03:13:12;;;;;;;79.45;50.35;;;13.60;99.90;;;;;;5032117;28;20254;-81
2022/10/31 03:15:43;;;;;;;67.97;45.63;;;13.70;99.90;;;;;;5039424;28;20204;-80
2022/10/31 03:18:16;;;;;;;73.43;46.42;;;13.70;99.90;;;;;;5050200;28;20255;-81
2022/10/31 03:20:48;;;;;;;95.70;48.95;;;13.70;99.90;;;;;;5027561;28;20649;-80
2022/10/31 03:23:17;;;;;;;84.18;51.80;;;13.70;99.90;;;;;;5031769;28;20224;-79
2022/10/31 03:25:45;;;;;;;88.88;48.60;;;13.70;99.90;;;;;;5036261;28;20622;-80
2022/10/31 03:28:15;;;;;;;72.70;43.90;;;13.60;99.90;;;;;;5032463;28;20224;-81
2022/10/31 03:30:45;;;;;;;58.45;42.42;;;13.60;99.90;;;;;;5029518;28;20209;-80
2022/10/31 03:33:20;;;;;;;98.40;53.58;;;13.50;99.90;;;;;;5031627;28;20228;-81
2022/10/31 03:35:50;;;;;;;84.88;52.13;;;13.50;99.90;;;;;;5040530;28;20275;-81
2022/10/31 03:38:17;;;;;;;93.07;53.92;;;13.50;99.90;;;;;;5041362;28;20193;-80
2022/10/31 03:40:47;;;;;;;68.88;48.47;;;13.50;99.90;;;;;;5042080;28;20578;-81
2022/10/31 03:43:20;;;;;;;84.00;50.22;;;13.50;99.90;;;;;;5042584;28;20248;-80
2022/10/31 03:45:48;;;;;;;62.00;39.85;;;13.40;99.90;;;;;;5046741;28;20212;-81
2022/10/31 03:48:19;;;;;;;104.90;54.38;;;13.40;99.90;;;;;;5042969;28;20309;-80
2022/10/31 03:50:53;;;;;;;67.90;43.58;;;13.40;99.90;;;;;;5034130;28;20299;-81
2022/10/31 03:53:26;;;;;;;87.85;53.28;;;13.40;99.90;;;;;;5041985;28;20250;-80
2022/10/31 03:55:58;;;;;;;112.15;54.30;;;13.30;99.90;;;;;;5043357;28;20266;-79
2022/10/31 03:58:29;;;;;;;74.20;49.35;;;13.30;99.90;;;;;;5036220;28;20565;-81
2022/10/31 04:00:58;;;;;;;108.43;53.75;;;13.30;99.90;;;;;;5041284;28;20299;-81
2022/10/31 04:03:29;;;;;;;88.75;51.20;;;13.20;99.90;;;;;;5033718;28;20285;-80
2022/10/31 04:06:00;;;;;;;104.07;55.63;;;13.20;99.90;;;;;;5032483;28;20303;-81
2022/10/31 04:08:30;;;;;;;109.55;54.13;;;13.20;99.90;;;;;;5029590;28;20212;-81
2022/10/31 04:11:00;;;;;;;99.38;54.22;;;13.20;99.90;;;;;;5035249;28;20196;-80
2022/10/31 04:13:29;;;;;;;92.13;50.75;;;13.10;99.90;;;;;;5031024;28;20245;-80
2022/10/31 04:15:57;;;;;;;90.55;52.00;;;13.10;99.90;;;;;;5032268;28;20274;-80
2022/10/31 04:18:26;;;;;;;124.28;60.90;;;13.20;99.90;;;;;;5031986;28;20199;-79
2022/10/31 04:21:01;;;;;;;107.40;58.30;;;13.10;99.90;;;;;;5026822;28;20208;-81
2022/10/31 04:23:29;;;;;;;100.35;55.47;;;13.10;99.90;;;;;;5037993;28;20220;-80
2022/10/31 04:25:55;;;;;;;107.38;58.80;;;13.10;99.90;;;;;;5039577;28;21148;-80
2022/10/31 04:28:23;;;;;;;142.82;67.95;;;13.20;99.90;;;;;;5045578;28;20229;-81
2022/10/31 04:30:50;;;;;;;131.90;62.40;;;13.20;99.90;;;;;;5048627;28;20287;-79
2022/10/31 04:33:17;;;;;;;108.95;56.97;;;13.20;99.90;;;;;;5039908;28;20231;-80
2022/10/31 04:35:45;;;;;;;155.60;67.03;;;13.20;99.90;;;;;;5033157;28;20194;-79
2022/10/31 04:38:12;;;;;;;269.02;81.18;;;13.20;99.90;;;;;;5041570;28;20270;-79
2022/10/31 04:40:39;;;;;;;134.93;62.53;;;13.20;99.90;;;;;;5044091;28;20294;-80
2022/10/31 04:43:06;;;;;;;188.23;77.95;;;13.20;99.90;;;;;;5043637;28;20227;-81
2022/10/31 04:45:33;;;;;;;276.48;86.03;;;13.10;99.90;;;;;;5051873;28;20195;-80
2022/10/31 04:48:00;;;;;;;163.52;69.90;;;13.10;99.90;;;;;;5050325;28;20215;-79
2022/10/31 04:50:27;;;;;;;93.47;55.10;;;13.10;99.90;;;;;;5048632;28;20249;-81
2022/10/31 04:52:55;;;;;;;146.73;66.88;;;13.10;99.90;;;;;;5055723;28;20197;-79
2022/10/31 04:55:22;;;;;;;392.45;103.50;;;13.10;99.90;;;;;;5053110;28;20594;-79
2022/10/31 04:57:50;;;;;;;168.02;78.40;;;13.00;99.90;;;;;;5055302;28;20219;-80
2022/10/31 05:00:19;;;;;;;628.05;134.35;;;13.00;99.90;;;;;;5057983;28;20203;-80
2022/10/31 05:02:47;;;;;;;249.00;92.72;;;12.90;99.90;;;;;;5065368;22;20265;-77
2022/10/31 05:05:15;;;;;;;313.88;109.15;;;12.90;99.90;;;;;;5048233;28;20204;-77
2022/10/31 05:07:42;;;;;;;618.40;137.75;;;12.90;99.90;;;;;;5035452;28;20286;-77
2022/10/31 05:10:12;;;;;;;480.55;122.80;;;12.90;99.90;;;;;;5028631;28;20300;-76
2022/10/31 05:12:46;;;;;;;771.70;164.30;;;12.80;99.90;;;;;;5034236;28;20228;-78
2022/10/31 05:15:12;;;;;;;640.03;140.60;;;12.80;99.90;;;;;;5028413;28;20558;-80
2022/10/31 05:17:39;;;;;;;333.63;99.30;;;12.80;99.90;;;;;;5025801;28;20290;-77
2022/10/31 05:20:07;;;;;;;983.47;191.18;;;12.80;99.90;;;;;;5032703;28;20204;-79
2022/10/31 05:22:34;;;;;;;76.05;54.38;;;12.70;99.90;;;;;;5033579;28;20254;-77
2022/10/31 05:25:01;;;;;;;225.77;77.07;;;12.80;99.90;;;;;;5017710;28;20235;-78
2022/10/31 05:27:39;;;;;;;339.60;97.65;;;12.80;99.90;;;;;;5038667;28;20216;-77
2022/10/31 05:30:07;;;;;;;331.02;102.28;;;12.80;99.90;;;;;;5042739;28;20247;-78
2022/10/31 05:32:38;;;;;;;462.20;117.18;;;12.80;99.90;;;;;;5029003;28;20223;-78
2022/10/31 05:35:08;;;;;;;306.90;98.13;;;12.80;99.90;;;;;;5015124;28;20290;-78
2022/10/31 05:37:35;;;;;;;300.85;90.32;;;12.80;99.90;;;;;;5031338;28;20301;-77
2022/10/31 05:40:02;;;;;;;235.35;89.82;;;12.70;99.90;;;;;;5016449;28;20240;-79
2022/10/31 05:42:30;;;;;;;220.65;89.40;;;12.70;99.90;;;;;;5022695;28;20254;-76
2022/10/31 05:44:59;;;;;;;164.30;80.15;;;12.70;99.90;;;;;;5047886;28;20208;-78
2022/10/31 05:47:28;;;;;;;134.43;69.65;;;12.70;99.90;;;;;;5031377;28;20242;-77
2022/10/31 05:49:55;;;;;;;109.93;62.63;;;12.70;99.90;;;;;;5027063;28;20226;-77
2022/10/31 05:52:22;;;;;;;292.48;96.85;;;12.70;99.90;;;;;;5035028;28;20310;-77
2022/10/31 05:54:49;;;;;;;212.98;85.10;;;12.70;99.90;;;;;;5033546;28;20287;-78
2022/10/31 05:57:16;;;;;;;304.88;100.65;;;12.70;99.90;;;;;;5019547;28;20209;-77
2022/10/31 05:59:42;;;;;;;98.13;56.67;;;12.70;99.90;;;;;;5035156;28;20196;-77
2022/10/31 06:02:11;;;;;;;246.27;86.13;;;12.60;99.90;;;;;;5030199;28;20237;-78
2022/10/31 06:04:38;;;;;;;105.57;57.20;;;12.60;99.90;;;;;;5041172;28;20203;-78
2022/10/31 06:07:05;;;;;;;125.22;64.10;;;12.60;99.90;;;;;;5031226;28;20287;-77
2022/10/31 06:09:32;;;;;;;96.68;58.30;;;12.50;99.90;;;;;;5032932;28;20299;-77
2022/10/31 06:11:58;;;;;;;190.18;76.68;;;12.50;99.90;;;;;;5026032;28;20300;-77
2022/10/31 06:14:26;;;;;;;233.27;83.88;;;12.50;99.90;;;;;;5027944;28;20257;-78
2022/10/31 06:16:55;;;;;;;163.52;72.43;;;12.40;99.90;;;;;;5034183;28;20200;-78
2022/10/31 06:19:23;;;;;;;153.10;70.05;;;12.50;99.90;;;;;;5022645;28;20200;-78
2022/10/31 06:21:50;;;;;;;98.03;55.03;;;12.40;99.90;;;;;;5020872;28;20713;-78
2022/10/31 06:24:17;;;;;;;110.03;63.40;;;12.40;99.90;;;;;;5044267;28;20262;-77
2022/10/31 06:26:44;;;;;;;119.45;66.47;;;12.40;99.90;;;;;;5026802;28;20290;-76
2022/10/31 06:29:11;;;;;;;87.78;57.83;;;12.40;99.90;;;;;;5031277;28;20431;-78
2022/10/31 06:31:38;;;;;;;95.85;60.55;;;12.30;99.90;;;;;;5031837;28;20309;-78
2022/10/31 06:34:05;;;;;;;132.77;69.03;;;12.30;99.90;;;;;;5030409;28;20245;-77
2022/10/31 06:36:33;;;;;;;102.45;61.65;;;12.30;99.90;;;;;;5032273;28;20221;-77
2022/10/31 06:39:01;;;;;;;88.88;56.00;;;12.30;99.90;;;;;;5018547;28;20288;-77
2022/10/31 06:41:28;;;;;;;105.60;62.25;;;12.30;99.90;;;;;;5026224;28;20223;-77
2022/10/31 06:43:55;;;;;;;196.32;75.20;;;12.20;99.90;;;;;;5031460;28;20286;-77
2022/10/31 06:46:22;;;;;;;80.40;56.58;;;12.30;99.90;;;;;;5024668;28;20551;-77
2022/10/31 06:48:49;;;;;;;90.40;59.88;;;12.30;99.90;;;;;;5028435;28;20203;-78
2022/10/31 06:51:16;;;;;;;299.85;97.78;;;12.40;99.90;;;;;;5023299;28;20241;-78
2022/10/31 06:53:44;;;;;;;131.13;68.15;;;12.40;99.90;;;;;;5026010;28;20199;-78
2022/10/31 06:56:11;;;;;;;95.65;60.13;;;12.40;99.90;;;;;;5017730;28;20215;-78
2022/10/31 06:58:39;;;;;;;190.20;76.55;;;12.40;99.90;;;;;;5023972;28;20283;-76
2022/10/31 07:01:07;;;;;;;152.90;72.38;;;12.30;99.90;;;;;;5026451;28;20201;-78
2022/10/31 07:03:35;;;;;;;97.63;59.10;;;12.40;99.90;;;;;;5042073;28;20215;-77
2022/10/31 07:06:02;;;;;;;85.75;56.45;;;12.50;99.90;;;;;;5028811;28;20296;-78
2022/10/31 07:08:29;;;;;;;112.88;64.18;;;12.60;99.90;;;;;;5034825;28;20206;-77
2022/10/31 07:10:59;;;;;;;79.25;57.85;;;12.60;99.90;;;;;;5035853;28;20315;-77
2022/10/31 07:13:26;;;;;;;75.18;52.60;;;12.60;99.90;;;;;;5033936;28;20250;-76
2022/10/31 07:15:54;;;;;;;94.35;56.67;;;12.60;99.90;;;;;;5042159;28;20222;-77
2022/10/31 07:18:22;;;;;;;129.10;65.18;;;12.60;99.90;;;;;;5044123;28;20207;-78
2022/10/31 07:20:49;;;;;;;163.05;73.63;;;12.50;99.90;;;;;;5034562;28;20218;-78
2022/10/31 07:23:16;;;;;;;234.40;80.88;;;12.50;99.90;;;;;;5030872;28;20220;-78
2022/10/31 07:25:43;;;;;;;126.85;67.43;;;12.50;99.90;;;;;;5023209;28;20214;-78
2022/10/31 07:28:11;;;;;;;168.30;68.35;;;12.50;99.90;;;;;;5026070;28;20227;-77
2022/10/31 07:30:39;;;;;;;108.85;61.05;;;12.60;99.90;;;;;;5033232;28;20305;-76
2022/10/31 07:33:06;;;;;;;101.28;56.75;;;12.70;99.90;;;;;;5030336;28;20307;-74
2022/10/31 07:35:34;;;;;;;88.95;56.15;;;12.70;99.90;;;;;;5030969;28;20232;-72
2022/10/31 07:38:08;;;;;;;122.28;66.38;;;12.70;99.90;;;;;;5035579;28;20203;-73
2022/10/31 07:40:35;;;;;;;116.03;64.53;;;12.80;99.90;;;;;;5027838;28;20202;-73
2022/10/31 07:43:02;;;;;;;74.75;50.10;;;12.80;99.90;;;;;;5020902;28;20224;-74
2022/10/31 07:45:30;;;;;;;83.80;51.70;;;12.90;99.90;;;;;;5025337;28;20302;-72
2022/10/31 07:47:58;;;;;;;99.20;55.40;;;12.90;99.90;;;;;;5029685;28;20659;-72
2022/10/31 07:50:26;;;;;;;58.58;46.97;;;13.00;99.90;;;;;;5028062;28;20205;-72
2022/10/31 07:53:00;;;;;;;83.45;50.90;;;13.00;99.90;;;;;;5032333;28;20307;-72
2022/10/31 07:55:27;;;;;;;63.55;44.50;;;13.10;99.90;;;;;;5023097;28;20663;-72
2022/10/31 07:57:58;;;;;;;64.95;45.60;;;13.20;99.90;;;;;;5032935;28;20217;-73
2022/10/31 08:00:26;;;;;;;53.50;42.20;;;13.20;99.90;;;;;;5030284;28;20224;-73
2022/10/31 08:03:01;;;;;;;70.78;48.97;;;13.30;99.90;;;;;;5026591;28;20706;-73
2022/10/31 08:05:29;;;;;;;87.57;53.28;;;13.30;99.90;;;;;;5030688;28;20283;-77
2022/10/31 08:07:56;;;;;;;101.65;56.80;;;13.30;99.90;;;;;;5033092;28;20284;-73
2022/10/31 08:10:23;;;;;;;46.78;38.05;;;13.20;99.90;;;;;;5023323;28;20306;-76
2022/10/31 08:12:57;;;;;;;87.55;47.00;;;13.30;99.90;;;;;;5021633;28;20315;-74
2022/10/31 08:15:24;;;;;;;134.07;51.38;;;13.40;99.90;;;;;;5017607;28;20572;-73
2022/10/31 08:17:51;;;;;;;60.63;40.00;;;13.30;99.90;;;;;;5016669;28;20209;-78
2022/10/31 08:20:20;;;;;;;57.83;40.17;;;13.40;99.90;;;;;;5017501;28;20282;-73
2022/10/31 08:22:57;;;;;;;49.53;36.15;;;13.50;99.90;;;;;;5019097;28;20308;-73
2022/10/31 08:25:25;;;;;;;82.65;41.42;;;13.60;99.90;;;;;;5021380;28;20198;-74
2022/10/31 08:27:54;;;;;;;96.18;42.25;;;13.50;99.90;;;;;;5017328;28;20636;-71
2022/10/31 08:30:21;;;;;;;52.55;40.47;;;13.30;99.90;;;;;;5023718;28;20301;-77
2022/10/31 08:32:49;;;;;;;62.13;37.47;;;13.30;99.90;;;;;;5025902;28;20658;-71
2022/10/31 08:35:16;;;;;;;70.18;41.17;;;13.30;99.90;;;;;;5019308;28;20291;-73
2022/10/31 08:37:45;;;;;;;49.10;39.38;;;13.30;99.90;;;;;;5020563;28;20617;-71
2022/10/31 08:40:13;;;;;;;39.20;32.70;;;13.50;99.90;;;;;;5016612;28;20286;-74
2022/10/31 08:42:40;;;;;;;41.20;33.72;;;13.60;99.90;;;;;;5023470;28;20311;-74
2022/10/31 08:45:07;;;;;;;28.65;25.60;;;13.90;99.90;;;;;;5021867;28;20228;-75
2022/10/31 08:47:34;;;;;;;33.60;29.42;;;14.10;99.90;;;;;;5024758;28;20258;-75
2022/10/31 08:50:01;;;;;;;38.00;31.60;;;14.10;99.90;;;;;;5028208;28;20220;-74
2022/10/31 08:52:28;;;;;;;41.38;33.63;;;14.10;99.90;;;;;;5032271;28;20231;-74
2022/10/31 08:54:57;;;;;;;41.58;30.88;;;14.20;99.90;;;;;;5032439;28;20287;-69
2022/10/31 08:57:23;;;;;;;34.35;30.63;;;14.30;99.90;;;;;;5033901;28;20204;-72
2022/10/31 08:59:51;;;;;;;30.92;27.70;;;14.50;99.90;;;;;;5029837;28;20229;-72
2022/10/31 09:02:19;;;;;;;36.85;29.77;;;14.70;99.90;;;;;;5036148;28;20255;-75
2022/10/31 09:04:46;;;;;;;47.33;31.90;;;14.80;99.90;;;;;;5044454;28;20287;-74
2022/10/31 09:07:13;;;;;;;34.67;29.27;;;14.80;99.90;;;;;;5029886;28;20207;-76
2022/10/31 09:09:40;;;;;;;36.17;30.05;;;14.80;99.90;;;;;;5028064;28;20297;-76
2022/10/31 09:12:08;;;;;;;39.97;29.63;;;14.90;99.90;;;;;;5029670;28;20252;-72
2022/10/31 09:14:37;;;;;;;36.22;29.52;;;14.90;99.90;;;;;;5033185;28;20207;-75
2022/10/31 09:17:04;;;;;;;35.20;27.20;;;14.90;99.90;;;;;;5023681;28;20281;-74
2022/10/31 09:19:31;;;;;;;31.25;26.42;;;15.10;99.90;;;;;;5028331;28;20826;-75
2022/10/31 09:21:58;;;;;;;33.13;29.52;;;15.20;99.90;;;;;;5026545;28;20230;-77
2022/10/31 09:24:25;;;;;;;32.78;26.77;;;15.20;99.90;;;;;;5022801;28;20727;-75
2022/10/31 09:26:52;;;;;;;34.15;27.77;;;15.30;99.90;;;;;;5018102;28;20249;-73
2022/10/31 09:29:20;;;;;;;33.03;26.20;;;15.30;99.90;;;;;;5014390;28;20556;-73
2022/10/31 09:31:47;;;;;;;27.73;24.75;;;15.30;99.90;;;;;;5024661;28;20524;-74
2022/10/31 09:34:14;;;;;;;37.53;25.27;;;15.40;99.90;;;;;;5029104;28;20246;-75
2022/10/31 09:36:42;;;;;;;24.83;22.17;;;15.60;99.90;;;;;;5015040;28;20545;-73
2022/10/31 09:39:09;;;;;;;30.53;26.20;;;15.70;99.90;;;;;;5017394;28;20866;-75
2022/10/31 09:41:58;;;;;;;34.78;27.58;;;15.70;99.90;;;;;;5015231;28;20470;-74
2022/10/31 09:44:34;;;;;;;34.15;27.98;;;15.60;99.90;;;;;;5029485;28;20234;-75
2022/10/31 09:47:09;;;;;;;33.75;28.05;;;15.80;99.90;;;;;;5030122;28;20721;-74
2022/10/31 09:49:53;;;;;;;29.80;26.60;;;15.80;99.90;;;;;;5012109;28;20571;-78
2022/10/31 09:52:25;;;;;;;28.60;23.10;;;16.20;99.90;;;;;;5028664;28;20477;-77
2022/10/31 09:54:56;;;;;;;25.30;21.27;;;17.00;99.90;;;;;;5027839;28;20504;-75
2022/10/31 09:57:28;;;;;;;24.10;21.57;;;18.00;99.90;;;;;;5021615;28;20519;-75
2022/10/31 09:59:57;;;;;;;24.43;21.73;;;18.40;99.90;;;;;;5022677;28;20448;-76
2022/10/31 10:02:28;;;;;;;24.40;21.87;;;18.70;99.90;;;;;;5021000;28;20498;-74
2022/10/31 10:04:58;;;;;;;24.67;21.03;;;19.00;99.90;;;;;;5024036;28;20562;-76
2022/10/31 10:07:39;;;;;;;21.90;19.73;;;19.50;99.90;;;;;;5021158;28;20607;-74
2022/10/31 10:10:15;;;;;;;24.50;17.90;;;20.00;99.90;;;;;;5017172;28;20487;-73
2022/10/31 10:13:06;;;;;;;21.77;18.80;;;20.20;99.90;;;;;;5022027;28;20498;-72
2022/10/31 10:15:50;;;;;;;21.87;19.63;;;20.40;99.90;;;;;;5021501;28;20463;-74
2022/10/31 10:18:28;;;;;;;24.07;21.43;;;20.40;99.90;;;;;;5022833;28;20450;-73
2022/10/31 10:21:10;;;;;;;22.47;20.10;;;20.20;99.90;;;;;;5006270;28;20520;-75
2022/10/31 10:23:55;;;;;;;23.30;19.87;;;20.30;99.90;;;;;;5020105;28;20460;-77
2022/10/31 10:26:26;;;;;;;27.90;22.90;;;20.30;99.90;;;;;;5020999;28;20439;-72
2022/10/31 10:28:59;;;;;;;31.90;26.80;;;19.90;99.90;;;;;;5025672;28;20757;-75
2022/10/31 10:31:32;;;;;;;30.17;24.73;;;19.20;99.90;;;;;;5026685;28;20490;-76
2022/10/31 10:34:08;;;;;;;29.00;25.40;;;18.90;99.90;;;;;;5027992;28;20747;-75
2022/10/31 10:36:42;;;;;;;29.77;25.47;;;18.40;99.90;;;;;;5022326;28;20465;-75
2022/10/31 10:39:16;;;;;;;33.10;25.70;;;18.30;99.90;;;;;;5024531;28;20870;-77
2022/10/31 10:50:00;;;;;;;44.47;27.03;;;18.20;99.90;;;;;;5017793;28;20795;-74
2022/10/31 10:52:34;;;;;;;34.67;26.50;;;18.30;99.90;;;;;;5030050;28;20463;-73
2022/10/31 10:55:10;;;;;;;31.37;26.50;;;18.40;99.90;;;;;;5036877;28;20454;-70
2022/10/31 10:57:55;;;;;;;28.03;22.67;;;18.60;99.90;;;;;;5032732;28;20451;-75
2022/10/31 11:00:25;;;;;;;28.07;23.97;;;18.80;99.90;;;;;;5023740;28;20536;-74
2022/10/31 11:02:55;;;;;;;28.70;23.80;;;18.90;99.90;;;;;;5031484;28;20486;-73
2022/10/31 11:05:31;;;;;;;30.93;22.87;;;19.10;99.90;;;;;;5030889;28;20453;-73
2022/10/31 11:07:58;;;;;;;28.33;23.40;;;19.30;99.90;;;;;;5030185;28;20534;-78
2022/10/31 11:10:25;;;;;;;31.33;24.43;;;19.60;99.90;;;;;;5027573;28;20890;-73
2022/10/31 11:13:02;;;;;;;29.77;22.17;;;19.60;99.90;;;;;;5030168;28;21055;-73
2022/10/31 11:15:33;;;;;;;33.80;23.77;;;19.50;99.90;;;;;;5030279;28;20473;-72
2022/10/31 11:18:02;;;;;;;30.40;23.47;;;19.50;99.90;;;;;;5017480;28;20991;-71
2022/10/31 11:20:34;;;;;;;30.10;20.27;;;19.20;99.90;;;;;;5026846;28;20822;-73
2022/10/31 11:23:16;;;;;;;31.60;24.90;;;18.90;99.90;;;;;;5016935;28;20463;-77
2022/10/31 11:25:51;;;;;;;33.37;25.17;;;18.90;99.90;;;;;;5000784;28;20456;-73
2022/10/31 11:28:18;;;;;;;32.33;25.53;;;18.70;99.90;;;;;;5026512;28;20454;-75
2022/10/31 11:30:49;;;;;;;28.70;23.20;;;18.50;99.90;;;;;;5022071;28;20483;-72
2022/10/31 11:33:25;;;;;;;31.97;24.77;;;18.40;99.90;;;;;;5020930;28;20471;-72
2022/10/31 11:35:54;;;;;;;32.53;25.70;;;18.30;99.90;;;;;;5021414;28;21026;-74
2022/10/31 11:38:23;;;;;;;34.80;26.90;;;18.10;99.90;;;;;;5022687;28;20914;-74
2022/10/31 11:40:57;;;;;;;29.60;24.83;;;18.00;99.90;;;;;;5030821;28;20471;-75
2022/10/31 11:43:24;;;;;;;36.77;24.00;;;17.70;99.90;;;;;;5025111;28;20497;-71
2022/10/31 11:45:53;;;;;;;32.10;25.57;;;17.80;99.90;;;;;;5026774;28;20479;-71
2022/10/31 11:48:23;;;;;;;31.20;26.20;;;17.80;99.90;;;;;;5042552;28;20961;-70
2022/10/31 11:50:54;;;;;;;36.87;26.43;;;17.70;99.90;;;;;;5035590;28;20486;-74
2022/10/31 11:53:27;;;;;;;35.53;26.43;;;17.50;99.90;;;;;;5029107;28;20499;-72
2022/10/31 11:56:05;;;;;;;41.57;26.17;;;17.50;99.90;;;;;;5041328;28;20448;-74
2022/10/31 11:58:32;;;;;;;43.53;27.90;;;17.50;99.90;;;;;;5032454;28;20456;-72
2022/10/31 12:00:59;;;;;;;40.03;28.97;;;17.50;99.90;;;;;;5031782;28;20475;-72
2022/10/31 12:03:43;;;;;;;39.87;27.90;;;17.30;99.90;;;;;;5035900;28;20835;-71
2022/10/31 12:06:15;;;;;;;39.87;30.73;;;17.20;99.90;;;;;;5028095;28;20525;-73
2022/10/31 12:08:43;;;;;;;43.77;33.83;;;17.10;99.90;;;;;;5029995;28;20482;-73
2022/10/31 12:11:24;;;;;;;41.57;32.00;;;17.10;99.90;;;;;;5029777;28;20509;-78
2022/10/31 12:14:00;;;;;;;49.40;32.40;;;16.90;99.90;;;;;;5032669;28;20537;-73
2022/10/31 12:16:32;;;;;;;42.40;31.10;;;16.90;99.90;;;;;;5007840;28;20526;-73
2022/10/31 12:19:06;;;;;;;37.53;31.83;;;16.80;99.90;;;;;;5029357;28;20470;-72
2022/10/31 12:21:53;;;;;;;39.17;31.20;;;16.70;99.90;;;;;;5030821;28;20467;-75
2022/10/31 12:24:33;;;;;;;51.77;35.40;;;16.70;99.90;;;;;;5031380;28;20443;-74
2022/10/31 12:27:12;;;;;;;48.17;33.67;;;16.50;99.90;;;;;;5004919;28;20820;-71
2022/10/31 12:30:00;;;;;;;43.03;32.40;;;16.40;99.90;;;;;;5005021;28;20564;-73
2022/10/31 12:32:39;;;;;;;43.43;31.60;;;16.30;99.90;;;;;;5007030;28;20941;-71
2022/10/31 12:35:41;;;;;;;45.00;31.58;;;16.30;99.90;;;;;;5012433;28;20554;-73
2022/10/31 12:38:47;;;;;;;35.57;29.33;;;16.30;99.90;;;;;;5028876;28;20214;-73
2022/10/31 12:41:45;;;;;;;36.67;26.73;;;16.30;99.90;;;;;;5039001;28;20449;-70
2022/10/31 12:44:30;;;;;;;32.97;27.20;;;16.30;99.90;;;;;;5036527;28;20465;-71
2022/10/31 12:47:14;;;;;;;31.87;27.00;;;16.30;99.90;;;;;;5021330;28;20470;-71
2022/10/31 12:49:53;;;;;;;33.10;25.40;;;16.40;99.90;;;;;;5024271;28;20446;-73